sensor_id;sensor_type;location;lat;lon;timestamp;temperature;humidity
24091;DHT22;12272;52.426;17.100;2023-07-30T00:03:55;19.40;99.90
24091;DHT22;12272;52.426;17.100;2023-07-30T00:08:58;19.50;99.90
24091;DHT22;12272;52.426;17.100;2023-07-30T00:14:01;19.50;99.90
24091;DHT22;12272;52.426;17.100;2023-07-30T00:19:03;19.60;98.90
24091;DHT22;12272;52.426;17.100;2023-07-30T00:24:06;19.70;99.90
24091;DHT22;12272;52.426;17.100;2023-07-30T00:29:08;19.50;99.90
24091;DHT22;12272;52.426;17.100;2023-07-30T00:34:12;19.40;99.90
24091;DHT22;12272;52.426;17.100;2023-07-30T00:39:14;19.20;99.90
24091;DHT22;12272;52.426;17.100;2023-07-30T00:44:17;19.10;99.90
24091;DHT22;12272;52.426;17.100;2023-07-30T00:49:19;19.10;99.90
24091;DHT22;12272;52.426;17.100;2023-07-30T00:54:23;19.00;99.90
24091;DHT22;12272;52.426;17.100;2023-07-30T00:59:25;18.80;99.90
24091;DHT22;12272;52.426;17.100;2023-07-30T01:04:29;18.70;99.90
24091;DHT22;12272;52.426;17.100;2023-07-30T01:09:33;18.60;99.90
24091;DHT22;12272;52.426;17.100;2023-07-30T01:14:36;18.40;99.90
24091;DHT22;12272;52.426;17.100;2023-07-30T01:19:40;18.30;99.90
24091;DHT22;12272;52.426;17.100;2023-07-30T01:24:43;18.20;99.90
24091;DHT22;12272;52.426;17.100;2023-07-30T01:29:52;18.10;99.90
24091;DHT22;12272;52.426;17.100;2023-07-30T01:34:59;18.20;99.90
24091;DHT22;12272;52.426;17.100;2023-07-30T01:40:03;18.10;99.90
24091;DHT22;12272;52.426;17.100;2023-07-30T01:45:06;18.10;99.90
24091;DHT22;12272;52.426;17.100;2023-07-30T01:50:09;18.20;99.90
24091;DHT22;12272;52.426;17.100;2023-07-30T01:55:12;18.20;99.90
24091;DHT22;12272;52.426;17.100;2023-07-30T02:00:15;18.10;99.90
24091;DHT22;12272;52.426;17.100;2023-07-30T02:05:17;18.00;99.90
24091;DHT22;12272;52.426;17.100;2023-07-30T02:10:20;18.10;99.90
24091;DHT22;12272;52.426;17.100;2023-07-30T02:15:22;18.30;99.90
24091;DHT22;12272;52.426;17.100;2023-07-30T02:20:25;18.30;99.90
24091;DHT22;12272;52.426;17.100;2023-07-30T02:25:28;18.30;99.90
24091;DHT22;12272;52.426;17.100;2023-07-30T02:30:30;18.30;99.90
24091;DHT22;12272;52.426;17.100;2023-07-30T02:35:34;18.20;99.90
24091;DHT22;12272;52.426;17.100;2023-07-30T02:40:37;18.20;99.90
24091;DHT22;12272;52.426;17.100;2023-07-30T02:45:40;18.40;99.90
24091;DHT22;12272;52.426;17.100;2023-07-30T02:50:42;18.40;99.90
24091;DHT22;12272;52.426;17.100;2023-07-30T02:55:45;18.30;99.90
24091;DHT22;12272;52.426;17.100;2023-07-30T03:00:47;18.40;99.90
24091;DHT22;12272;52.426;17.100;2023-07-30T03:05:50;18.50;99.90
24091;DHT22;12272;52.426;17.100;2023-07-30T03:10:53;18.50;99.90
24091;DHT22;12272;52.426;17.100;2023-07-30T03:15:55;18.40;99.90
24091;DHT22;12272;52.426;17.100;2023-07-30T03:20:59;18.30;99.90
24091;DHT22;12272;52.426;17.100;2023-07-30T03:26:02;18.20;99.90
24091;DHT22;12272;52.426;17.100;2023-07-30T03:31:06;18.00;99.90
24091;DHT22;12272;52.426;17.100;2023-07-30T03:36:09;17.90;99.90
24091;DHT22;12272;52.426;17.100;2023-07-30T03:41:12;17.80;99.90
24091;DHT22;12272;52.426;17.100;2023-07-30T03:46:14;17.90;99.90
24091;DHT22;12272;52.426;17.100;2023-07-30T03:51:17;17.90;99.90
24091;DHT22;12272;52.426;17.100;2023-07-30T03:56:20;18.10;99.90
24091;DHT22;12272;52.426;17.100;2023-07-30T04:01:23;18.10;99.90
24091;DHT22;12272;52.426;17.100;2023-07-30T04:06:26;18.10;99.90
24091;DHT22;12272;52.426;17.100;2023-07-30T04:11:28;18.20;99.90
24091;DHT22;12272;52.426;17.100;2023-07-30T04:16:32;18.40;99.90
24091;DHT22;12272;52.426;17.100;2023-07-30T04:21:34;18.50;99.90
24091;DHT22;12272;52.426;17.100;2023-07-30T04:26:37;18.50;99.90
24091;DHT22;12272;52.426;17.100;2023-07-30T04:31:40;18.50;99.90
24091;DHT22;12272;52.426;17.100;2023-07-30T04:36:42;18.50;99.90
24091;DHT22;12272;52.426;17.100;2023-07-30T04:41:46;18.50;99.90
24091;DHT22;12272;52.426;17.100;2023-07-30T04:46:49;18.60;99.90
24091;DHT22;12272;52.426;17.100;2023-07-30T04:51:52;18.60;99.90
24091;DHT22;12272;52.426;17.100;2023-07-30T04:56:55;18.70;99.90
24091;DHT22;12272;52.426;17.100;2023-07-30T05:01:57;18.70;99.90
24091;DHT22;12272;52.426;17.100;2023-07-30T05:07:00;18.80;99.90
24091;DHT22;12272;52.426;17.100;2023-07-30T05:12:03;18.90;99.90
24091;DHT22;12272;52.426;17.100;2023-07-30T05:17:05;18.80;99.90
24091;DHT22;12272;52.426;17.100;2023-07-30T05:22:08;18.90;99.90
24091;DHT22;12272;52.426;17.100;2023-07-30T05:27:11;19.00;99.90
24091;DHT22;12272;52.426;17.100;2023-07-30T05:32:14;19.30;99.90
24091;DHT22;12272;52.426;17.100;2023-07-30T05:37:16;19.30;99.90
24091;DHT22;12272;52.426;17.100;2023-07-30T05:42:19;19.50;99.90
24091;DHT22;12272;52.426;17.100;2023-07-30T05:47:21;19.60;99.90
24091;DHT22;12272;52.426;17.100;2023-07-30T05:52:23;19.70;99.90
24091;DHT22;12272;52.426;17.100;2023-07-30T05:57:26;19.70;98.10
24091;DHT22;12272;52.426;17.100;2023-07-30T06:02:29;19.80;99.90
24091;DHT22;12272;52.426;17.100;2023-07-30T06:07:31;19.90;98.70
24091;DHT22;12272;52.426;17.100;2023-07-30T06:12:34;20.00;98.70
24091;DHT22;12272;52.426;17.100;2023-07-30T06:17:36;20.00;99.90
24091;DHT22;12272;52.426;17.100;2023-07-30T06:22:39;19.90;99.90
24091;DHT22;12272;52.426;17.100;2023-07-30T06:27:41;20.10;96.70
24091;DHT22;12272;52.426;17.100;2023-07-30T06:32:44;20.20;97.80
24091;DHT22;12272;52.426;17.100;2023-07-30T06:37:46;20.30;98.30
24091;DHT22;12272;52.426;17.100;2023-07-30T06:42:49;20.40;98.50
24091;DHT22;12272;52.426;17.100;2023-07-30T06:47:52;20.40;99.60
24091;DHT22;12272;52.426;17.100;2023-07-30T06:52:54;20.40;99.90
24091;DHT22;12272;52.426;17.100;2023-07-30T06:57:57;20.50;97.70
24091;DHT22;12272;52.426;17.100;2023-07-30T07:03:00;20.50;99.10
24091;DHT22;12272;52.426;17.100;2023-07-30T07:08:03;20.60;95.20
24091;DHT22;12272;52.426;17.100;2023-07-30T07:13:05;20.70;96.00
24091;DHT22;12272;52.426;17.100;2023-07-30T07:18:08;20.80;98.60
24091;DHT22;12272;52.426;17.100;2023-07-30T07:23:11;20.80;96.70
24091;DHT22;12272;52.426;17.100;2023-07-30T07:28:15;21.00;92.20
24091;DHT22;12272;52.426;17.100;2023-07-30T07:33:18;21.00;96.60
24091;DHT22;12272;52.426;17.100;2023-07-30T07:38:21;21.10;92.90
24091;DHT22;12272;52.426;17.100;2023-07-30T07:43:24;21.20;94.70
24091;DHT22;12272;52.426;17.100;2023-07-30T07:48:26;21.20;96.10
24091;DHT22;12272;52.426;17.100;2023-07-30T07:53:29;21.30;93.80
24091;DHT22;12272;52.426;17.100;2023-07-30T07:58:32;21.40;96.10
24091;DHT22;12272;52.426;17.100;2023-07-30T08:03:35;21.50;91.40
24091;DHT22;12272;52.426;17.100;2023-07-30T08:08:37;21.60;96.70
24091;DHT22;12272;52.426;17.100;2023-07-30T08:13:41;21.60;94.80
24091;DHT22;12272;52.426;17.100;2023-07-30T08:18:43;21.60;94.90
24091;DHT22;12272;52.426;17.100;2023-07-30T08:23:46;21.60;93.90
24091;DHT22;12272;52.426;17.100;2023-07-30T08:28:48;21.60;94.80
24091;DHT22;12272;52.426;17.100;2023-07-30T08:33:51;21.70;95.80
24091;DHT22;12272;52.426;17.100;2023-07-30T08:38:53;21.90;94.80
24091;DHT22;12272;52.426;17.100;2023-07-30T08:43:56;22.10;93.40
24091;DHT22;12272;52.426;17.100;2023-07-30T08:48:59;22.10;91.80
24091;DHT22;12272;52.426;17.100;2023-07-30T08:54:02;22.20;91.50
24091;DHT22;12272;52.426;17.100;2023-07-30T08:59:05;22.30;89.50
24091;DHT22;12272;52.426;17.100;2023-07-30T09:04:08;22.40;84.80
24091;DHT22;12272;52.426;17.100;2023-07-30T09:09:11;22.70;91.60
24091;DHT22;12272;52.426;17.100;2023-07-30T09:14:19;22.80;87.30
24091;DHT22;12272;52.426;17.100;2023-07-30T09:19:23;23.00;89.00
24091;DHT22;12272;52.426;17.100;2023-07-30T09:24:26;23.20;92.20
24091;DHT22;12272;52.426;17.100;2023-07-30T09:29:28;23.20;92.40
24091;DHT22;12272;52.426;17.100;2023-07-30T09:34:31;23.20;80.50
24091;DHT22;12272;52.426;17.100;2023-07-30T09:39:36;23.30;75.70
24091;DHT22;12272;52.426;17.100;2023-07-30T09:44:39;23.40;76.20
24091;DHT22;12272;52.426;17.100;2023-07-30T09:49:42;23.40;77.40
24091;DHT22;12272;52.426;17.100;2023-07-30T09:54:45;23.40;75.50
24091;DHT22;12272;52.426;17.100;2023-07-30T09:59:52;23.60;76.10
24091;DHT22;12272;52.426;17.100;2023-07-30T10:04:56;23.70;76.70
24091;DHT22;12272;52.426;17.100;2023-07-30T10:10:02;23.70;71.90
24091;DHT22;12272;52.426;17.100;2023-07-30T10:15:06;23.80;69.10
24091;DHT22;12272;52.426;17.100;2023-07-30T10:20:25;23.80;68.00
24091;DHT22;12272;52.426;17.100;2023-07-30T10:25:42;23.90;70.40
24091;DHT22;12272;52.426;17.100;2023-07-30T10:31:01;23.90;63.90
24091;DHT22;12272;52.426;17.100;2023-07-30T10:36:07;23.70;67.10
24091;DHT22;12272;52.426;17.100;2023-07-30T10:41:12;23.70;61.20
24091;DHT22;12272;52.426;17.100;2023-07-30T10:46:17;23.70;62.00
24091;DHT22;12272;52.426;17.100;2023-07-30T10:51:21;23.70;60.70
24091;DHT22;12272;52.426;17.100;2023-07-30T10:56:25;23.80;65.20
24091;DHT22;12272;52.426;17.100;2023-07-30T11:01:27;24.00;59.50
24091;DHT22;12272;52.426;17.100;2023-07-30T11:06:30;23.90;63.50
24091;DHT22;12272;52.426;17.100;2023-07-30T11:11:33;23.90;59.70
24091;DHT22;12272;52.426;17.100;2023-07-30T11:16:35;24.30;64.20
24091;DHT22;12272;52.426;17.100;2023-07-30T11:21:49;24.30;56.50
24091;DHT22;12272;52.426;17.100;2023-07-30T11:26:59;24.20;55.60
24091;DHT22;12272;52.426;17.100;2023-07-30T11:32:01;24.20;58.40
24091;DHT22;12272;52.426;17.100;2023-07-30T11:37:06;24.20;55.80
24091;DHT22;12272;52.426;17.100;2023-07-30T11:42:09;24.30;64.20
24091;DHT22;12272;52.426;17.100;2023-07-30T11:47:11;24.50;58.90
24091;DHT22;12272;52.426;17.100;2023-07-30T11:52:22;24.60;55.40
24091;DHT22;12272;52.426;17.100;2023-07-30T11:57:33;24.60;55.90
24091;DHT22;12272;52.426;17.100;2023-07-30T12:02:36;24.40;55.60
24091;DHT22;12272;52.426;17.100;2023-07-30T12:07:41;24.30;56.00
24091;DHT22;12272;52.426;17.100;2023-07-30T12:12:45;24.20;57.40
24091;DHT22;12272;52.426;17.100;2023-07-30T12:17:48;24.20;54.70
24091;DHT22;12272;52.426;17.100;2023-07-30T12:22:51;24.20;52.70
24091;DHT22;12272;52.426;17.100;2023-07-30T12:27:53;24.20;55.40
24091;DHT22;12272;52.426;17.100;2023-07-30T12:32:56;24.30;57.20
24091;DHT22;12272;52.426;17.100;2023-07-30T12:37:59;24.10;55.90
24091;DHT22;12272;52.426;17.100;2023-07-30T12:43:03;24.00;56.00
24091;DHT22;12272;52.426;17.100;2023-07-30T12:48:05;24.00;59.70
24091;DHT22;12272;52.426;17.100;2023-07-30T12:53:10;24.20;65.50
24091;DHT22;12272;52.426;17.100;2023-07-30T12:58:13;24.20;66.20
24091;DHT22;12272;52.426;17.100;2023-07-30T13:03:16;24.20;61.00
24091;DHT22;12272;52.426;17.100;2023-07-30T13:08:18;24.10;60.30
24091;DHT22;12272;52.426;17.100;2023-07-30T13:13:21;24.00;55.50
24091;DHT22;12272;52.426;17.100;2023-07-30T13:18:23;24.00;58.70
24091;DHT22;12272;52.426;17.100;2023-07-30T13:23:26;23.90;58.00
24091;DHT22;12272;52.426;17.100;2023-07-30T13:28:29;24.00;60.80
24091;DHT22;12272;52.426;17.100;2023-07-30T13:33:31;23.80;55.30
24091;DHT22;12272;52.426;17.100;2023-07-30T13:38:34;23.70;58.00
24091;DHT22;12272;52.426;17.100;2023-07-30T13:43:36;23.70;60.20
24091;DHT22;12272;52.426;17.100;2023-07-30T13:48:39;23.80;59.20
24091;DHT22;12272;52.426;17.100;2023-07-30T13:53:41;23.80;58.40
24091;DHT22;12272;52.426;17.100;2023-07-30T13:58:44;24.00;60.30
24091;DHT22;12272;52.426;17.100;2023-07-30T14:03:46;24.20;56.70
24091;DHT22;12272;52.426;17.100;2023-07-30T14:13:52;24.60;56.00
24091;DHT22;12272;52.426;17.100;2023-07-30T14:18:54;24.90;56.30
24091;DHT22;12272;52.426;17.100;2023-07-30T14:23:57;25.10;50.90
24091;DHT22;12272;52.426;17.100;2023-07-30T14:28:59;25.30;47.00
24091;DHT22;12272;52.426;17.100;2023-07-30T14:34:02;25.10;45.30
24091;DHT22;12272;52.426;17.100;2023-07-30T14:39:04;25.00;48.20
24091;DHT22;12272;52.426;17.100;2023-07-30T14:44:07;24.80;48.80
24091;DHT22;12272;52.426;17.100;2023-07-30T14:49:10;24.70;49.40
24091;DHT22;12272;52.426;17.100;2023-07-30T14:54:12;24.60;49.00
24091;DHT22;12272;52.426;17.100;2023-07-30T14:59:15;24.40;50.60
24091;DHT22;12272;52.426;17.100;2023-07-30T15:04:17;24.10;60.30
24091;DHT22;12272;52.426;17.100;2023-07-30T15:09:20;23.60;74.80
24091;DHT22;12272;52.426;17.100;2023-07-30T15:14:22;23.20;90.50
24091;DHT22;12272;52.426;17.100;2023-07-30T15:19:25;22.80;93.30
24091;DHT22;12272;52.426;17.100;2023-07-30T15:24:27;22.40;86.30
24091;DHT22;12272;52.426;17.100;2023-07-30T15:29:30;22.10;96.60
24091;DHT22;12272;52.426;17.100;2023-07-30T15:34:32;21.70;99.90
24091;DHT22;12272;52.426;17.100;2023-07-30T15:39:35;21.60;99.90
24091;DHT22;12272;52.426;17.100;2023-07-30T15:44:38;21.70;99.90
24091;DHT22;12272;52.426;17.100;2023-07-30T15:49:41;21.90;99.90
24091;DHT22;12272;52.426;17.100;2023-07-30T15:54:43;22.00;99.90
24091;DHT22;12272;52.426;17.100;2023-07-30T15:59:47;22.20;95.10
24091;DHT22;12272;52.426;17.100;2023-07-30T16:04:50;22.30;94.50
24091;DHT22;12272;52.426;17.100;2023-07-30T16:09:52;22.50;92.60
24091;DHT22;12272;52.426;17.100;2023-07-30T16:14:55;22.60;94.30
24091;DHT22;12272;52.426;17.100;2023-07-30T16:19:58;22.60;95.20
24091;DHT22;12272;52.426;17.100;2023-07-30T16:25:00;22.60;99.80
24091;DHT22;12272;52.426;17.100;2023-07-30T16:30:03;22.70;99.50
24091;DHT22;12272;52.426;17.100;2023-07-30T16:35:06;23.00;99.90
24091;DHT22;12272;52.426;17.100;2023-07-30T16:40:09;23.20;96.20
24091;DHT22;12272;52.426;17.100;2023-07-30T16:45:12;23.40;91.30
24091;DHT22;12272;52.426;17.100;2023-07-30T16:50:15;23.50;88.40
24091;DHT22;12272;52.426;17.100;2023-07-30T16:55:17;23.60;94.50
24091;DHT22;12272;52.426;17.100;2023-07-30T17:00:20;23.50;95.40
24091;DHT22;12272;52.426;17.100;2023-07-30T17:05:23;23.40;96.50
24091;DHT22;12272;52.426;17.100;2023-07-30T17:10:26;23.20;96.40
24091;DHT22;12272;52.426;17.100;2023-07-30T17:15:29;23.00;96.90
24091;DHT22;12272;52.426;17.100;2023-07-30T17:20:31;22.70;97.80
24091;DHT22;12272;52.426;17.100;2023-07-30T17:25:35;22.50;97.40
24091;DHT22;12272;52.426;17.100;2023-07-30T17:30:38;22.40;93.10
24091;DHT22;12272;52.426;17.100;2023-07-30T17:35:40;22.40;98.50
24091;DHT22;12272;52.426;17.100;2023-07-30T17:40:53;22.30;93.40
24091;DHT22;12272;52.426;17.100;2023-07-30T17:45:56;22.40;95.60
24091;DHT22;12272;52.426;17.100;2023-07-30T17:50:59;22.50;90.50
24091;DHT22;12272;52.426;17.100;2023-07-30T17:56:02;22.50;91.50
24091;DHT22;12272;52.426;17.100;2023-07-30T18:01:05;22.40;84.90
24091;DHT22;12272;52.426;17.100;2023-07-30T18:06:08;22.30;91.70
24091;DHT22;12272;52.426;17.100;2023-07-30T18:11:12;22.20;92.70
24091;DHT22;12272;52.426;17.100;2023-07-30T18:16:15;22.00;92.40
24091;DHT22;12272;52.426;17.100;2023-07-30T18:21:18;21.80;92.40
24091;DHT22;12272;52.426;17.100;2023-07-30T18:26:20;21.70;92.70
24091;DHT22;12272;52.426;17.100;2023-07-30T18:31:23;21.50;92.20
24091;DHT22;12272;52.426;17.100;2023-07-30T18:36:26;21.30;92.70
24091;DHT22;12272;52.426;17.100;2023-07-30T18:41:28;21.00;93.70
24091;DHT22;12272;52.426;17.100;2023-07-30T18:46:31;20.80;93.70
24091;DHT22;12272;52.426;17.100;2023-07-30T18:51:33;20.60;93.50
24091;DHT22;12272;52.426;17.100;2023-07-30T18:56:36;20.40;91.90
24091;DHT22;12272;52.426;17.100;2023-07-30T19:01:39;20.30;90.80
24091;DHT22;12272;52.426;17.100;2023-07-30T19:06:42;20.10;90.60
24091;DHT22;12272;52.426;17.100;2023-07-30T19:11:45;20.00;90.90
24091;DHT22;12272;52.426;17.100;2023-07-30T19:16:47;19.70;92.80
24091;DHT22;12272;52.426;17.100;2023-07-30T19:21:50;19.40;95.00
24091;DHT22;12272;52.426;17.100;2023-07-30T19:26:52;19.10;96.50
24091;DHT22;12272;52.426;17.100;2023-07-30T19:31:55;19.00;96.40
24091;DHT22;12272;52.426;17.100;2023-07-30T19:36:57;18.80;96.40
24091;DHT22;12272;52.426;17.100;2023-07-30T19:42:00;18.70;96.70
24091;DHT22;12272;52.426;17.100;2023-07-30T19:47:03;18.60;95.80
24091;DHT22;12272;52.426;17.100;2023-07-30T19:52:06;18.50;97.60
24091;DHT22;12272;52.426;17.100;2023-07-30T19:57:09;18.40;98.90
24091;DHT22;12272;52.426;17.100;2023-07-30T20:02:11;18.20;99.90
24091;DHT22;12272;52.426;17.100;2023-07-30T20:07:14;18.10;99.90
24091;DHT22;12272;52.426;17.100;2023-07-30T20:12:17;18.00;99.90
24091;DHT22;12272;52.426;17.100;2023-07-30T20:17:19;18.00;99.90
24091;DHT22;12272;52.426;17.100;2023-07-30T20:22:22;18.10;99.90
24091;DHT22;12272;52.426;17.100;2023-07-30T20:27:24;18.10;99.90
24091;DHT22;12272;52.426;17.100;2023-07-30T20:32:27;18.10;99.90
24091;DHT22;12272;52.426;17.100;2023-07-30T20:37:30;18.10;99.90
24091;DHT22;12272;52.426;17.100;2023-07-30T20:42:32;18.10;99.90
24091;DHT22;12272;52.426;17.100;2023-07-30T20:47:35;18.20;99.70
24091;DHT22;12272;52.426;17.100;2023-07-30T20:52:37;18.30;98.60
24091;DHT22;12272;52.426;17.100;2023-07-30T20:57:40;18.40;97.90
24091;DHT22;12272;52.426;17.100;2023-07-30T21:02:43;18.60;97.10
24091;DHT22;12272;52.426;17.100;2023-07-30T21:07:45;18.70;96.20
24091;DHT22;12272;52.426;17.100;2023-07-30T21:12:48;18.80;95.60
24091;DHT22;12272;52.426;17.100;2023-07-30T21:17:50;19.10;94.80
24091;DHT22;12272;52.426;17.100;2023-07-30T21:22:53;19.20;93.70
24091;DHT22;12272;52.426;17.100;2023-07-30T21:27:55;19.50;92.80
24091;DHT22;12272;52.426;17.100;2023-07-30T21:32:58;19.60;92.50
24091;DHT22;12272;52.426;17.100;2023-07-30T21:38:03;19.60;92.40
24091;DHT22;12272;52.426;17.100;2023-07-30T21:43:05;19.70;92.30
24091;DHT22;12272;52.426;17.100;2023-07-30T21:48:08;19.80;92.10
24091;DHT22;12272;52.426;17.100;2023-07-30T21:53:10;19.90;91.80
24091;DHT22;12272;52.426;17.100;2023-07-30T21:58:13;19.70;91.30
24091;DHT22;12272;52.426;17.100;2023-07-30T22:03:15;20.10;90.30
24091;DHT22;12272;52.426;17.100;2023-07-30T22:08:18;20.10;89.20
24091;DHT22;12272;52.426;17.100;2023-07-30T22:13:21;20.10;88.40
24091;DHT22;12272;52.426;17.100;2023-07-30T22:18:24;20.10;84.90
24091;DHT22;12272;52.426;17.100;2023-07-30T22:23:27;19.90;83.50
24091;DHT22;12272;52.426;17.100;2023-07-30T22:28:29;19.90;87.10
24091;DHT22;12272;52.426;17.100;2023-07-30T22:33:32;19.90;85.10
24091;DHT22;12272;52.426;17.100;2023-07-30T22:38:34;19.70;85.50
24091;DHT22;12272;52.426;17.100;2023-07-30T22:43:37;19.70;85.20
24091;DHT22;12272;52.426;17.100;2023-07-30T22:48:39;19.70;86.90
24091;DHT22;12272;52.426;17.100;2023-07-30T22:53:42;19.60;87.80
24091;DHT22;12272;52.426;17.100;2023-07-30T22:58:45;19.40;89.10
24091;DHT22;12272;52.426;17.100;2023-07-30T23:03:49;19.40;90.30
24091;DHT22;12272;52.426;17.100;2023-07-30T23:08:51;19.40;90.70
24091;DHT22;12272;52.426;17.100;2023-07-30T23:13:54;19.50;90.70
24091;DHT22;12272;52.426;17.100;2023-07-30T23:18:56;19.60;91.90
24091;DHT22;12272;52.426;17.100;2023-07-30T23:23:59;19.50;93.80
24091;DHT22;12272;52.426;17.100;2023-07-30T23:29:04;19.20;94.80
24091;DHT22;12272;52.426;17.100;2023-07-30T23:34:06;19.20;94.80
24091;DHT22;12272;52.426;17.100;2023-07-30T23:39:08;18.90;96.90
24091;DHT22;12272;52.426;17.100;2023-07-30T23:44:11;18.80;96.10
24091;DHT22;12272;52.426;17.100;2023-07-30T23:49:14;18.90;95.80
24091;DHT22;12272;52.426;17.100;2023-07-30T23:54:16;18.90;97.20
24091;DHT22;12272;52.426;17.100;2023-07-30T23:59:19;19.00;98.00
